Details for Norwegian Air Shuttle at LEMG




Go Back


Latest METAR
Local Time

LEMG 240000Z 10011KT 9999 FEW020 SCT035 BKN050 13/07 Q1006 NOSIG

24/02/2018, 01:11:52

Description
Results
Norwegian Air Shuttle Logo
Number of Pilots based at LEMG
0 Pilots Based here
Number of Norwegian Air Shuttle Flights Departed from LEMG
0 Flights Departed
Number of Norwegian Air Shuttle Flights Arrived at LEMG
0 Flights Arrived
Number of Norwegian Air Shuttle Schedules Departing from LEMG
8 Schedules
Number of Norwegian Air Shuttle Schedules Arriving at LEMG
8 Schedules
Number of Norwegian Air Shuttle Schedules Departing from LEMG availible today
6 Schedules Today
Number of Norwegian Air Shuttle Schedules Arriving at LEMG availible today
6 Schedules Today
Average Landing Rate at LEMG
-272 fpm
Norwegian Air Shuttle Average Landing Rate at LEMG
0 fpm
Total Fuel Purchased at LEMG by Norwegian Air Shuttle
0.00 kgs / 0.00 lbs

Pilots Based at LEMG


Pilot ID
Pilot Name
Pilot Rank
No. of Flights
No. of Flying Hours
There are no pilots assigned to this hub!   Will you be the first?
Content